sensor_id;sensor_type;location;lat;lon;timestamp;P1;durP1;ratioP1;P2;durP2;ratioP2
59922;SDS011;45778;51.142;3.732;2023-06-04T00:02:26;2.67;;;1.30;;
59922;SDS011;45778;51.142;3.732;2023-06-04T00:04:52;3.80;;;1.45;;
59922;SDS011;45778;51.142;3.732;2023-06-04T00:07:17;5.30;;;1.10;;
59922;SDS011;45778;51.142;3.732;2023-06-04T00:09:43;4.20;;;1.42;;
59922;SDS011;45778;51.142;3.732;2023-06-04T00:12:11;3.63;;;1.00;;
59922;SDS011;45778;51.142;3.732;2023-06-04T00:14:38;3.42;;;1.13;;
59922;SDS011;45778;51.142;3.732;2023-06-04T00:17:03;1.98;;;1.17;;
59922;SDS011;45778;51.142;3.732;2023-06-04T00:19:29;1.73;;;1.05;;
59922;SDS011;45778;51.142;3.732;2023-06-04T00:21:55;3.22;;;1.48;;
59922;SDS011;45778;51.142;3.732;2023-06-04T00:24:21;3.90;;;1.30;;
59922;SDS011;45778;51.142;3.732;2023-06-04T00:26:47;2.35;;;1.17;;
59922;SDS011;45778;51.142;3.732;2023-06-04T00:29:12;3.60;;;1.23;;
59922;SDS011;45778;51.142;3.732;2023-06-04T00:31:38;4.43;;;1.85;;
59922;SDS011;45778;51.142;3.732;2023-06-04T00:34:03;3.42;;;1.42;;
59922;SDS011;45778;51.142;3.732;2023-06-04T00:36:30;2.95;;;1.10;;
59922;SDS011;45778;51.142;3.732;2023-06-04T00:38:55;3.30;;;1.17;;
59922;SDS011;45778;51.142;3.732;2023-06-04T00:41:21;3.00;;;2.15;;
59922;SDS011;45778;51.142;3.732;2023-06-04T00:43:46;3.13;;;1.75;;
59922;SDS011;45778;51.142;3.732;2023-06-04T00:46:21;2.90;;;1.38;;
59922;SDS011;45778;51.142;3.732;2023-06-04T00:48:51;3.25;;;1.40;;
59922;SDS011;45778;51.142;3.732;2023-06-04T00:51:18;2.70;;;1.48;;
59922;SDS011;45778;51.142;3.732;2023-06-04T00:53:45;3.30;;;1.10;;
59922;SDS011;45778;51.142;3.732;2023-06-04T00:56:11;3.78;;;1.35;;
59922;SDS011;45778;51.142;3.732;2023-06-04T00:58:38;6.13;;;1.65;;
59922;SDS011;45778;51.142;3.732;2023-06-04T01:01:04;6.78;;;1.80;;
59922;SDS011;45778;51.142;3.732;2023-06-04T01:03:50;4.18;;;1.40;;
59922;SDS011;45778;51.142;3.732;2023-06-04T01:06:21;4.47;;;1.50;;
59922;SDS011;45778;51.142;3.732;2023-06-04T01:08:53;4.68;;;1.52;;
59922;SDS011;45778;51.142;3.732;2023-06-04T01:11:32;2.33;;;1.13;;
59922;SDS011;45778;51.142;3.732;2023-06-04T01:14:02;3.35;;;1.27;;
59922;SDS011;45778;51.142;3.732;2023-06-04T01:16:30;4.45;;;1.33;;
59922;SDS011;45778;51.142;3.732;2023-06-04T01:19:01;2.90;;;1.52;;
59922;SDS011;45778;51.142;3.732;2023-06-04T01:21:29;3.78;;;1.77;;
59922;SDS011;45778;51.142;3.732;2023-06-04T01:24:00;2.95;;;1.70;;
59922;SDS011;45778;51.142;3.732;2023-06-04T01:26:30;2.13;;;1.13;;
59922;SDS011;45778;51.142;3.732;2023-06-04T01:28:57;3.63;;;1.40;;
59922;SDS011;45778;51.142;3.732;2023-06-04T01:31:24;1.70;;;1.27;;
59922;SDS011;45778;51.142;3.732;2023-06-04T01:33:51;2.65;;;1.55;;
59922;SDS011;45778;51.142;3.732;2023-06-04T01:36:18;2.33;;;1.33;;
59922;SDS011;45778;51.142;3.732;2023-06-04T01:38:44;4.22;;;1.60;;
59922;SDS011;45778;51.142;3.732;2023-06-04T01:41:10;3.70;;;1.67;;
59922;SDS011;45778;51.142;3.732;2023-06-04T01:43:36;3.67;;;1.33;;
59922;SDS011;45778;51.142;3.732;2023-06-04T01:46:02;2.92;;;1.50;;
59922;SDS011;45778;51.142;3.732;2023-06-04T01:48:28;2.75;;;1.48;;
59922;SDS011;45778;51.142;3.732;2023-06-04T01:50:54;2.40;;;1.33;;
59922;SDS011;45778;51.142;3.732;2023-06-04T01:53:21;2.40;;;1.17;;
59922;SDS011;45778;51.142;3.732;2023-06-04T01:55:47;2.78;;;1.33;;
59922;SDS011;45778;51.142;3.732;2023-06-04T01:58:14;2.70;;;1.33;;
59922;SDS011;45778;51.142;3.732;2023-06-04T02:00:42;4.25;;;1.65;;
59922;SDS011;45778;51.142;3.732;2023-06-04T02:03:09;2.90;;;1.50;;
59922;SDS011;45778;51.142;3.732;2023-06-04T02:05:35;2.42;;;1.50;;
59922;SDS011;45778;51.142;3.732;2023-06-04T02:08:01;7.95;;;1.75;;
59922;SDS011;45778;51.142;3.732;2023-06-04T02:10:29;2.80;;;1.33;;
59922;SDS011;45778;51.142;3.732;2023-06-04T02:15:23;2.25;;;1.50;;
59922;SDS011;45778;51.142;3.732;2023-06-04T02:17:50;2.80;;;1.67;;
59922;SDS011;45778;51.142;3.732;2023-06-04T02:20:16;2.72;;;1.55;;
59922;SDS011;45778;51.142;3.732;2023-06-04T02:22:42;4.45;;;1.80;;
59922;SDS011;45778;51.142;3.732;2023-06-04T02:25:08;3.10;;;1.55;;
59922;SDS011;45778;51.142;3.732;2023-06-04T02:27:34;9.13;;;1.80;;
59922;SDS011;45778;51.142;3.732;2023-06-04T02:30:00;4.53;;;1.33;;
59922;SDS011;45778;51.142;3.732;2023-06-04T02:32:26;3.70;;;1.55;;
59922;SDS011;45778;51.142;3.732;2023-06-04T02:34:53;3.13;;;1.73;;
59922;SDS011;45778;51.142;3.732;2023-06-04T02:37:20;3.55;;;1.50;;
59922;SDS011;45778;51.142;3.732;2023-06-04T02:39:47;2.45;;;1.50;;
59922;SDS011;45778;51.142;3.732;2023-06-04T02:42:13;2.40;;;1.80;;
59922;SDS011;45778;51.142;3.732;2023-06-04T02:44:38;2.72;;;1.60;;
59922;SDS011;45778;51.142;3.732;2023-06-04T02:47:04;5.13;;;1.95;;
59922;SDS011;45778;51.142;3.732;2023-06-04T02:49:30;5.22;;;1.98;;
59922;SDS011;45778;51.142;3.732;2023-06-04T02:51:56;2.20;;;1.48;;
59922;SDS011;45778;51.142;3.732;2023-06-04T02:54:21;2.22;;;1.50;;
59922;SDS011;45778;51.142;3.732;2023-06-04T02:56:47;5.85;;;1.80;;
59922;SDS011;45778;51.142;3.732;2023-06-04T02:59:14;3.17;;;1.60;;
59922;SDS011;45778;51.142;3.732;2023-06-04T03:01:39;3.45;;;1.50;;
59922;SDS011;45778;51.142;3.732;2023-06-04T03:04:05;6.15;;;1.80;;
59922;SDS011;45778;51.142;3.732;2023-06-04T03:06:34;3.55;;;1.60;;
59922;SDS011;45778;51.142;3.732;2023-06-04T03:09:03;8.13;;;1.98;;
59922;SDS011;45778;51.142;3.732;2023-06-04T03:11:29;3.03;;;2.17;;
59922;SDS011;45778;51.142;3.732;2023-06-04T03:13:55;3.65;;;1.50;;
59922;SDS011;45778;51.142;3.732;2023-06-04T03:16:20;3.55;;;1.83;;
59922;SDS011;45778;51.142;3.732;2023-06-04T03:18:46;3.88;;;1.45;;
59922;SDS011;45778;51.142;3.732;2023-06-04T03:21:12;5.18;;;2.95;;
59922;SDS011;45778;51.142;3.732;2023-06-04T03:23:38;5.75;;;2.20;;
59922;SDS011;45778;51.142;3.732;2023-06-04T03:26:04;3.05;;;1.77;;
59922;SDS011;45778;51.142;3.732;2023-06-04T03:28:31;7.13;;;2.25;;
59922;SDS011;45778;51.142;3.732;2023-06-04T03:30:57;4.22;;;2.20;;
59922;SDS011;45778;51.142;3.732;2023-06-04T03:33:23;2.92;;;1.63;;
59922;SDS011;45778;51.142;3.732;2023-06-04T03:35:50;2.97;;;2.05;;
59922;SDS011;45778;51.142;3.732;2023-06-04T03:38:17;4.70;;;2.08;;
59922;SDS011;45778;51.142;3.732;2023-06-04T03:40:43;2.72;;;1.80;;
59922;SDS011;45778;51.142;3.732;2023-06-04T03:43:10;6.68;;;2.50;;
59922;SDS011;45778;51.142;3.732;2023-06-04T03:45:35;4.47;;;2.58;;
59922;SDS011;45778;51.142;3.732;2023-06-04T03:48:01;3.30;;;2.15;;
59922;SDS011;45778;51.142;3.732;2023-06-04T03:50:27;3.75;;;1.92;;
59922;SDS011;45778;51.142;3.732;2023-06-04T03:52:52;4.93;;;2.03;;
59922;SDS011;45778;51.142;3.732;2023-06-04T03:55:18;2.85;;;1.80;;
59922;SDS011;45778;51.142;3.732;2023-06-04T03:57:44;2.65;;;1.70;;
59922;SDS011;45778;51.142;3.732;2023-06-04T04:00:10;3.50;;;1.80;;
59922;SDS011;45778;51.142;3.732;2023-06-04T04:02:38;4.20;;;1.67;;
59922;SDS011;45778;51.142;3.732;2023-06-04T04:05:07;5.13;;;1.67;;
59922;SDS011;45778;51.142;3.732;2023-06-04T04:07:34;3.10;;;1.60;;
59922;SDS011;45778;51.142;3.732;2023-06-04T04:10:00;3.17;;;1.60;;
59922;SDS011;45778;51.142;3.732;2023-06-04T04:12:27;2.85;;;1.67;;
59922;SDS011;45778;51.142;3.732;2023-06-04T04:14:52;3.80;;;1.75;;
59922;SDS011;45778;51.142;3.732;2023-06-04T04:17:18;2.85;;;1.60;;
59922;SDS011;45778;51.142;3.732;2023-06-04T04:19:43;4.50;;;1.77;;
59922;SDS011;45778;51.142;3.732;2023-06-04T04:22:12;3.25;;;1.50;;
59922;SDS011;45778;51.142;3.732;2023-06-04T04:24:42;4.00;;;1.35;;
59922;SDS011;45778;51.142;3.732;2023-06-04T04:27:08;2.30;;;1.77;;
59922;SDS011;45778;51.142;3.732;2023-06-04T04:29:35;4.38;;;1.73;;
59922;SDS011;45778;51.142;3.732;2023-06-04T04:32:02;6.03;;;1.98;;
59922;SDS011;45778;51.142;3.732;2023-06-04T04:34:37;3.35;;;1.80;;
59922;SDS011;45778;51.142;3.732;2023-06-04T04:37:07;2.83;;;1.40;;
59922;SDS011;45778;51.142;3.732;2023-06-04T04:39:34;3.83;;;1.77;;
59922;SDS011;45778;51.142;3.732;2023-06-04T04:42:01;3.13;;;2.17;;
59922;SDS011;45778;51.142;3.732;2023-06-04T04:44:27;3.20;;;1.83;;
59922;SDS011;45778;51.142;3.732;2023-06-04T04:46:53;2.97;;;1.65;;
59922;SDS011;45778;51.142;3.732;2023-06-04T04:49:18;3.03;;;1.60;;
59922;SDS011;45778;51.142;3.732;2023-06-04T04:51:44;8.57;;;2.00;;
59922;SDS011;45778;51.142;3.732;2023-06-04T04:54:09;4.97;;;1.40;;
59922;SDS011;45778;51.142;3.732;2023-06-04T04:56:35;2.90;;;1.77;;
59922;SDS011;45778;51.142;3.732;2023-06-04T04:59:01;2.75;;;1.63;;
59922;SDS011;45778;51.142;3.732;2023-06-04T05:01:27;3.30;;;1.60;;
59922;SDS011;45778;51.142;3.732;2023-06-04T05:03:52;2.75;;;1.67;;
59922;SDS011;45778;51.142;3.732;2023-06-04T05:06:18;3.63;;;1.80;;
59922;SDS011;45778;51.142;3.732;2023-06-04T05:08:44;5.30;;;1.83;;
59922;SDS011;45778;51.142;3.732;2023-06-04T05:11:10;3.40;;;1.65;;
59922;SDS011;45778;51.142;3.732;2023-06-04T05:13:36;4.00;;;1.60;;
59922;SDS011;45778;51.142;3.732;2023-06-04T05:16:01;3.50;;;1.65;;
59922;SDS011;45778;51.142;3.732;2023-06-04T05:18:36;4.25;;;1.48;;
59922;SDS011;45778;51.142;3.732;2023-06-04T05:21:05;3.25;;;1.70;;
59922;SDS011;45778;51.142;3.732;2023-06-04T05:23:32;3.83;;;2.42;;
59922;SDS011;45778;51.142;3.732;2023-06-04T05:26:02;2.47;;;1.70;;
59922;SDS011;45778;51.142;3.732;2023-06-04T05:28:28;2.13;;;1.40;;
59922;SDS011;45778;51.142;3.732;2023-06-04T05:30:54;2.35;;;1.58;;
59922;SDS011;45778;51.142;3.732;2023-06-04T05:33:27;3.03;;;1.80;;
59922;SDS011;45778;51.142;3.732;2023-06-04T05:35:55;4.28;;;1.55;;
59922;SDS011;45778;51.142;3.732;2023-06-04T05:38:23;3.45;;;1.80;;
59922;SDS011;45778;51.142;3.732;2023-06-04T05:40:50;4.78;;;1.73;;
59922;SDS011;45778;51.142;3.732;2023-06-04T05:43:17;3.65;;;1.90;;
59922;SDS011;45778;51.142;3.732;2023-06-04T05:45:43;4.20;;;1.60;;
59922;SDS011;45778;51.142;3.732;2023-06-04T05:48:09;2.30;;;1.60;;
59922;SDS011;45778;51.142;3.732;2023-06-04T05:50:34;3.78;;;1.30;;
59922;SDS011;45778;51.142;3.732;2023-06-04T05:53:00;2.15;;;1.60;;
59922;SDS011;45778;51.142;3.732;2023-06-04T05:55:26;3.08;;;1.60;;
59922;SDS011;45778;51.142;3.732;2023-06-04T05:57:53;3.08;;;1.65;;
59922;SDS011;45778;51.142;3.732;2023-06-04T06:00:19;4.55;;;1.67;;
59922;SDS011;45778;51.142;3.732;2023-06-04T06:02:45;3.67;;;1.80;;
59922;SDS011;45778;51.142;3.732;2023-06-04T06:05:14;4.85;;;1.60;;
59922;SDS011;45778;51.142;3.732;2023-06-04T06:07:40;2.10;;;1.70;;
59922;SDS011;45778;51.142;3.732;2023-06-04T06:10:06;2.42;;;1.80;;
59922;SDS011;45778;51.142;3.732;2023-06-04T06:12:32;2.92;;;1.40;;
59922;SDS011;45778;51.142;3.732;2023-06-04T06:14:58;2.42;;;1.70;;
59922;SDS011;45778;51.142;3.732;2023-06-04T06:17:23;5.93;;;1.80;;
59922;SDS011;45778;51.142;3.732;2023-06-04T06:19:51;4.53;;;1.75;;
59922;SDS011;45778;51.142;3.732;2023-06-04T06:22:20;2.83;;;1.75;;
59922;SDS011;45778;51.142;3.732;2023-06-04T06:24:46;2.92;;;1.98;;
59922;SDS011;45778;51.142;3.732;2023-06-04T06:27:15;2.70;;;1.52;;
59922;SDS011;45778;51.142;3.732;2023-06-04T06:29:41;4.30;;;1.73;;
59922;SDS011;45778;51.142;3.732;2023-06-04T06:32:07;4.88;;;2.03;;
59922;SDS011;45778;51.142;3.732;2023-06-04T06:34:33;2.75;;;1.65;;
59922;SDS011;45778;51.142;3.732;2023-06-04T06:36:59;2.47;;;1.67;;
59922;SDS011;45778;51.142;3.732;2023-06-04T06:39:25;3.28;;;1.65;;
59922;SDS011;45778;51.142;3.732;2023-06-04T06:41:50;5.63;;;1.60;;
59922;SDS011;45778;51.142;3.732;2023-06-04T06:44:16;4.63;;;1.58;;
59922;SDS011;45778;51.142;3.732;2023-06-04T06:46:42;2.13;;;1.60;;
59922;SDS011;45778;51.142;3.732;2023-06-04T06:49:08;2.67;;;1.40;;
59922;SDS011;45778;51.142;3.732;2023-06-04T06:51:33;3.90;;;1.73;;
59922;SDS011;45778;51.142;3.732;2023-06-04T06:53:59;2.65;;;1.52;;
59922;SDS011;45778;51.142;3.732;2023-06-04T06:56:25;2.20;;;1.35;;
59922;SDS011;45778;51.142;3.732;2023-06-04T06:58:51;3.20;;;1.70;;
59922;SDS011;45778;51.142;3.732;2023-06-04T07:01:16;2.55;;;1.50;;
59922;SDS011;45778;51.142;3.732;2023-06-04T07:03:42;3.47;;;1.55;;
59922;SDS011;45778;51.142;3.732;2023-06-04T07:06:08;3.33;;;1.85;;
59922;SDS011;45778;51.142;3.732;2023-06-04T07:08:33;2.45;;;1.40;;
59922;SDS011;45778;51.142;3.732;2023-06-04T07:11:00;2.75;;;1.52;;
59922;SDS011;45778;51.142;3.732;2023-06-04T07:13:27;4.40;;;1.55;;
59922;SDS011;45778;51.142;3.732;2023-06-04T07:15:53;3.65;;;2.00;;
59922;SDS011;45778;51.142;3.732;2023-06-04T07:18:19;3.38;;;1.67;;
59922;SDS011;45778;51.142;3.732;2023-06-04T07:20:45;3.47;;;1.88;;
59922;SDS011;45778;51.142;3.732;2023-06-04T07:23:11;6.30;;;2.10;;
59922;SDS011;45778;51.142;3.732;2023-06-04T07:25:36;2.28;;;1.50;;
59922;SDS011;45778;51.142;3.732;2023-06-04T07:28:02;3.45;;;1.35;;
59922;SDS011;45778;51.142;3.732;2023-06-04T07:30:30;3.45;;;2.13;;
59922;SDS011;45778;51.142;3.732;2023-06-04T07:32:59;4.28;;;1.48;;
59922;SDS011;45778;51.142;3.732;2023-06-04T07:35:25;2.40;;;1.60;;
59922;SDS011;45778;51.142;3.732;2023-06-04T07:37:51;2.92;;;1.55;;
59922;SDS011;45778;51.142;3.732;2023-06-04T07:40:17;3.58;;;1.38;;
59922;SDS011;45778;51.142;3.732;2023-06-04T07:42:44;4.20;;;1.45;;
59922;SDS011;45778;51.142;3.732;2023-06-04T07:45:10;2.53;;;1.55;;
59922;SDS011;45778;51.142;3.732;2023-06-04T07:47:36;2.78;;;1.58;;
59922;SDS011;45778;51.142;3.732;2023-06-04T07:50:03;2.88;;;1.23;;
59922;SDS011;45778;51.142;3.732;2023-06-04T07:52:29;3.42;;;1.50;;
59922;SDS011;45778;51.142;3.732;2023-06-04T07:54:55;1.70;;;1.30;;
59922;SDS011;45778;51.142;3.732;2023-06-04T07:57:20;3.08;;;1.30;;
59922;SDS011;45778;51.142;3.732;2023-06-04T07:59:46;2.63;;;1.30;;
59922;SDS011;45778;51.142;3.732;2023-06-04T08:02:12;3.03;;;1.50;;
59922;SDS011;45778;51.142;3.732;2023-06-04T08:04:38;3.75;;;1.50;;
59922;SDS011;45778;51.142;3.732;2023-06-04T08:07:04;3.00;;;1.30;;
59922;SDS011;45778;51.142;3.732;2023-06-04T08:09:30;1.77;;;1.27;;
59922;SDS011;45778;51.142;3.732;2023-06-04T08:11:56;2.17;;;1.20;;
59922;SDS011;45778;51.142;3.732;2023-06-04T08:14:21;3.05;;;1.48;;
59922;SDS011;45778;51.142;3.732;2023-06-04T08:16:48;3.47;;;1.38;;
59922;SDS011;45778;51.142;3.732;2023-06-04T08:19:14;3.08;;;1.73;;
59922;SDS011;45778;51.142;3.732;2023-06-04T08:21:40;2.42;;;1.10;;
59922;SDS011;45778;51.142;3.732;2023-06-04T08:24:08;2.20;;;1.35;;
59922;SDS011;45778;51.142;3.732;2023-06-04T08:26:34;2.58;;;1.17;;
59922;SDS011;45778;51.142;3.732;2023-06-04T08:29:01;2.22;;;1.23;;
59922;SDS011;45778;51.142;3.732;2023-06-04T08:31:29;2.38;;;0.85;;
59922;SDS011;45778;51.142;3.732;2023-06-04T08:33:54;2.85;;;1.10;;
59922;SDS011;45778;51.142;3.732;2023-06-04T08:36:20;2.05;;;1.00;;
59922;SDS011;45778;51.142;3.732;2023-06-04T08:38:46;6.20;;;1.58;;
59922;SDS011;45778;51.142;3.732;2023-06-04T08:41:17;5.43;;;1.15;;
59922;SDS011;45778;51.142;3.732;2023-06-04T08:43:58;2.50;;;1.20;;
59922;SDS011;45778;51.142;3.732;2023-06-04T08:46:26;3.08;;;1.42;;
59922;SDS011;45778;51.142;3.732;2023-06-04T08:48:53;4.85;;;2.28;;
59922;SDS011;45778;51.142;3.732;2023-06-04T08:51:21;4.60;;;1.40;;
59922;SDS011;45778;51.142;3.732;2023-06-04T08:53:47;2.60;;;1.50;;
59922;SDS011;45778;51.142;3.732;2023-06-04T08:56:17;2.17;;;1.15;;
59922;SDS011;45778;51.142;3.732;2023-06-04T08:58:44;4.70;;;1.20;;
59922;SDS011;45778;51.142;3.732;2023-06-04T09:01:11;1.98;;;1.10;;
59922;SDS011;45778;51.142;3.732;2023-06-04T09:03:38;2.55;;;0.98;;
59922;SDS011;45778;51.142;3.732;2023-06-04T09:06:04;1.70;;;1.02;;
59922;SDS011;45778;51.142;3.732;2023-06-04T09:08:31;1.65;;;0.90;;
59922;SDS011;45778;51.142;3.732;2023-06-04T09:11:00;1.63;;;1.13;;
59922;SDS011;45778;51.142;3.732;2023-06-04T09:13:30;1.55;;;0.63;;
59922;SDS011;45778;51.142;3.732;2023-06-04T09:16:04;3.20;;;1.00;;
59922;SDS011;45778;51.142;3.732;2023-06-04T09:18:33;3.25;;;0.90;;
59922;SDS011;45778;51.142;3.732;2023-06-04T09:21:02;2.10;;;0.90;;
59922;SDS011;45778;51.142;3.732;2023-06-04T09:23:30;1.10;;;0.70;;
59922;SDS011;45778;51.142;3.732;2023-06-04T09:25:57;1.48;;;0.90;;
59922;SDS011;45778;51.142;3.732;2023-06-04T09:28:32;1.90;;;1.00;;
59922;SDS011;45778;51.142;3.732;2023-06-04T09:30:58;1.55;;;1.02;;
59922;SDS011;45778;51.142;3.732;2023-06-04T09:33:23;1.15;;;0.60;;
59922;SDS011;45778;51.142;3.732;2023-06-04T09:35:55;2.63;;;1.23;;
59922;SDS011;45778;51.142;3.732;2023-06-04T09:38:22;3.05;;;1.45;;
59922;SDS011;45778;51.142;3.732;2023-06-04T09:40:48;1.42;;;0.85;;
59922;SDS011;45778;51.142;3.732;2023-06-04T09:43:21;2.17;;;0.70;;
59922;SDS011;45778;51.142;3.732;2023-06-04T09:45:48;2.30;;;0.82;;
59922;SDS011;45778;51.142;3.732;2023-06-04T09:48:20;1.10;;;0.70;;
59922;SDS011;45778;51.142;3.732;2023-06-04T09:50:46;1.48;;;0.60;;
59922;SDS011;45778;51.142;3.732;2023-06-04T09:53:16;1.35;;;0.68;;
59922;SDS011;45778;51.142;3.732;2023-06-04T09:55:57;1.20;;;0.50;;
59922;SDS011;45778;51.142;3.732;2023-06-04T09:58:28;1.23;;;0.90;;
59922;SDS011;45778;51.142;3.732;2023-06-04T10:00:55;1.92;;;0.63;;
59922;SDS011;45778;51.142;3.732;2023-06-04T10:03:29;1.35;;;0.77;;
59922;SDS011;45778;51.142;3.732;2023-06-04T10:06:01;1.65;;;0.88;;
59922;SDS011;45778;51.142;3.732;2023-06-04T10:08:30;3.17;;;1.50;;
59922;SDS011;45778;51.142;3.732;2023-06-04T10:10:58;1.20;;;0.73;;
59922;SDS011;45778;51.142;3.732;2023-06-04T10:13:28;2.70;;;1.00;;
59922;SDS011;45778;51.142;3.732;2023-06-04T10:15:56;1.20;;;0.70;;
59922;SDS011;45778;51.142;3.732;2023-06-04T10:18:23;2.38;;;0.73;;
59922;SDS011;45778;51.142;3.732;2023-06-04T10:20:50;1.05;;;0.82;;
59922;SDS011;45778;51.142;3.732;2023-06-04T10:23:19;7.63;;;1.10;;
59922;SDS011;45778;51.142;3.732;2023-06-04T10:25:47;1.02;;;0.65;;
59922;SDS011;45778;51.142;3.732;2023-06-04T10:28:15;2.03;;;1.00;;
59922;SDS011;45778;51.142;3.732;2023-06-04T10:30:41;1.80;;;0.80;;
59922;SDS011;45778;51.142;3.732;2023-06-04T10:33:07;1.02;;;0.75;;
59922;SDS011;45778;51.142;3.732;2023-06-04T10:35:34;1.67;;;0.73;;
59922;SDS011;45778;51.142;3.732;2023-06-04T10:38:19;2.03;;;0.95;;
59922;SDS011;45778;51.142;3.732;2023-06-04T10:40:46;4.28;;;1.25;;
59922;SDS011;45778;51.142;3.732;2023-06-04T10:43:13;1.20;;;0.85;;
59922;SDS011;45778;51.142;3.732;2023-06-04T10:45:41;1.45;;;0.93;;
59922;SDS011;45778;51.142;3.732;2023-06-04T10:48:08;1.42;;;0.80;;
59922;SDS011;45778;51.142;3.732;2023-06-04T10:50:35;5.13;;;1.15;;
59922;SDS011;45778;51.142;3.732;2023-06-04T10:53:14;1.02;;;0.80;;
59922;SDS011;45778;51.142;3.732;2023-06-04T10:55:43;1.30;;;0.90;;
59922;SDS011;45778;51.142;3.732;2023-06-04T10:58:09;2.72;;;0.73;;
59922;SDS011;45778;51.142;3.732;2023-06-04T11:00:38;2.20;;;0.80;;
59922;SDS011;45778;51.142;3.732;2023-06-04T11:03:05;1.13;;;0.70;;
59922;SDS011;45778;51.142;3.732;2023-06-04T11:05:44;2.47;;;0.88;;
59922;SDS011;45778;51.142;3.732;2023-06-04T11:08:11;2.25;;;0.98;;
59922;SDS011;45778;51.142;3.732;2023-06-04T11:10:42;1.70;;;0.77;;
59922;SDS011;45778;51.142;3.732;2023-06-04T11:13:09;2.65;;;0.80;;
59922;SDS011;45778;51.142;3.732;2023-06-04T11:18:05;1.88;;;0.73;;
59922;SDS011;45778;51.142;3.732;2023-06-04T11:20:30;1.88;;;0.85;;
59922;SDS011;45778;51.142;3.732;2023-06-04T11:22:57;2.60;;;0.60;;
59922;SDS011;45778;51.142;3.732;2023-06-04T11:25:28;2.30;;;0.93;;
59922;SDS011;45778;51.142;3.732;2023-06-04T11:27:55;1.48;;;0.80;;
59922;SDS011;45778;51.142;3.732;2023-06-04T11:30:22;1.80;;;0.90;;
59922;SDS011;45778;51.142;3.732;2023-06-04T11:32:48;1.50;;;0.57;;
59922;SDS011;45778;51.142;3.732;2023-06-04T11:35:15;1.17;;;0.60;;
59922;SDS011;45778;51.142;3.732;2023-06-04T11:37:41;3.78;;;0.90;;
59922;SDS011;45778;51.142;3.732;2023-06-04T11:40:18;1.17;;;0.70;;
59922;SDS011;45778;51.142;3.732;2023-06-04T11:42:45;1.92;;;0.70;;
59922;SDS011;45778;51.142;3.732;2023-06-04T11:45:13;1.00;;;0.82;;
59922;SDS011;45778;51.142;3.732;2023-06-04T11:47:41;2.30;;;0.70;;
59922;SDS011;45778;51.142;3.732;2023-06-04T11:50:14;1.88;;;0.95;;
59922;SDS011;45778;51.142;3.732;2023-06-04T11:52:40;1.55;;;0.88;;
59922;SDS011;45778;51.142;3.732;2023-06-04T11:55:09;0.90;;;0.70;;
59922;SDS011;45778;51.142;3.732;2023-06-04T11:57:36;1.88;;;0.70;;
59922;SDS011;45778;51.142;3.732;2023-06-04T12:00:03;4.72;;;1.15;;
59922;SDS011;45778;51.142;3.732;2023-06-04T12:02:34;1.40;;;0.90;;
59922;SDS011;45778;51.142;3.732;2023-06-04T12:05:10;0.93;;;0.73;;
59922;SDS011;45778;51.142;3.732;2023-06-04T12:07:37;2.28;;;0.60;;
59922;SDS011;45778;51.142;3.732;2023-06-04T12:10:06;2.47;;;0.65;;
59922;SDS011;45778;51.142;3.732;2023-06-04T12:12:33;1.52;;;0.68;;
59922;SDS011;45778;51.142;3.732;2023-06-04T12:15:00;3.45;;;0.80;;
59922;SDS011;45778;51.142;3.732;2023-06-04T12:17:26;2.17;;;0.85;;
59922;SDS011;45778;51.142;3.732;2023-06-04T12:19:52;1.75;;;0.60;;
59922;SDS011;45778;51.142;3.732;2023-06-04T12:22:18;5.38;;;0.65;;
59922;SDS011;45778;51.142;3.732;2023-06-04T12:24:48;1.23;;;0.68;;
59922;SDS011;45778;51.142;3.732;2023-06-04T12:27:21;3.47;;;1.90;;
59922;SDS011;45778;51.142;3.732;2023-06-04T12:29:58;2.53;;;0.95;;
59922;SDS011;45778;51.142;3.732;2023-06-04T12:32:28;1.50;;;0.77;;
59922;SDS011;45778;51.142;3.732;2023-06-04T12:34:54;3.60;;;0.90;;
59922;SDS011;45778;51.142;3.732;2023-06-04T12:37:20;0.98;;;0.73;;
59922;SDS011;45778;51.142;3.732;2023-06-04T12:39:47;1.40;;;0.80;;
59922;SDS011;45778;51.142;3.732;2023-06-04T12:42:13;1.33;;;0.60;;
59922;SDS011;45778;51.142;3.732;2023-06-04T12:44:39;1.63;;;0.75;;
59922;SDS011;45778;51.142;3.732;2023-06-04T12:47:05;1.10;;;0.80;;
59922;SDS011;45778;51.142;3.732;2023-06-04T12:49:31;4.68;;;0.80;;
59922;SDS011;45778;51.142;3.732;2023-06-04T12:51:57;1.00;;;0.80;;
59922;SDS011;45778;51.142;3.732;2023-06-04T12:54:23;1.63;;;0.77;;
59922;SDS011;45778;51.142;3.732;2023-06-04T12:56:49;1.80;;;0.70;;
59922;SDS011;45778;51.142;3.732;2023-06-04T12:59:15;1.98;;;0.88;;
59922;SDS011;45778;51.142;3.732;2023-06-04T13:01:41;2.35;;;0.85;;
59922;SDS011;45778;51.142;3.732;2023-06-04T13:04:07;1.65;;;0.80;;
59922;SDS011;45778;51.142;3.732;2023-06-04T13:06:33;1.45;;;0.77;;
59922;SDS011;45778;51.142;3.732;2023-06-04T13:09:02;1.30;;;0.80;;
59922;SDS011;45778;51.142;3.732;2023-06-04T13:11:33;1.08;;;0.70;;
59922;SDS011;45778;51.142;3.732;2023-06-04T13:14:08;1.00;;;0.70;;
59922;SDS011;45778;51.142;3.732;2023-06-04T13:16:34;3.22;;;0.80;;
59922;SDS011;45778;51.142;3.732;2023-06-04T13:19:00;3.97;;;1.10;;
59922;SDS011;45778;51.142;3.732;2023-06-04T13:21:26;1.70;;;1.00;;
59922;SDS011;45778;51.142;3.732;2023-06-04T13:23:52;2.92;;;1.40;;
59922;SDS011;45778;51.142;3.732;2023-06-04T13:26:18;2.58;;;1.10;;
59922;SDS011;45778;51.142;3.732;2023-06-04T13:28:44;0.98;;;0.90;;
59922;SDS011;45778;51.142;3.732;2023-06-04T13:31:09;1.98;;;0.90;;
59922;SDS011;45778;51.142;3.732;2023-06-04T13:33:35;2.17;;;0.80;;
59922;SDS011;45778;51.142;3.732;2023-06-04T13:36:04;1.02;;;0.80;;
59922;SDS011;45778;51.142;3.732;2023-06-04T13:38:31;1.88;;;0.80;;
59922;SDS011;45778;51.142;3.732;2023-06-04T13:40:57;1.55;;;0.85;;
59922;SDS011;45778;51.142;3.732;2023-06-04T13:43:23;2.25;;;0.90;;
59922;SDS011;45778;51.142;3.732;2023-06-04T13:45:48;3.20;;;0.90;;
59922;SDS011;45778;51.142;3.732;2023-06-04T13:48:14;4.32;;;1.00;;
59922;SDS011;45778;51.142;3.732;2023-06-04T13:50:40;2.20;;;0.80;;
59922;SDS011;45778;51.142;3.732;2023-06-04T13:53:07;0.88;;;0.75;;
59922;SDS011;45778;51.142;3.732;2023-06-04T13:55:33;5.03;;;0.98;;
59922;SDS011;45778;51.142;3.732;2023-06-04T13:57:59;1.13;;;0.60;;
59922;SDS011;45778;51.142;3.732;2023-06-04T14:00:25;1.25;;;0.95;;
59922;SDS011;45778;51.142;3.732;2023-06-04T14:02:51;1.38;;;1.10;;
59922;SDS011;45778;51.142;3.732;2023-06-04T14:05:19;1.40;;;1.00;;
59922;SDS011;45778;51.142;3.732;2023-06-04T14:07:45;5.00;;;0.82;;
59922;SDS011;45778;51.142;3.732;2023-06-04T14:10:11;0.85;;;0.70;;
59922;SDS011;45778;51.142;3.732;2023-06-04T14:12:37;0.63;;;0.60;;
59922;SDS011;45778;51.142;3.732;2023-06-04T14:15:04;3.10;;;0.80;;
59922;SDS011;45778;51.142;3.732;2023-06-04T14:17:31;4.22;;;1.00;;
59922;SDS011;45778;51.142;3.732;2023-06-04T14:19:56;1.30;;;1.00;;
59922;SDS011;45778;51.142;3.732;2023-06-04T14:22:22;1.90;;;0.80;;
59922;SDS011;45778;51.142;3.732;2023-06-04T14:24:48;1.40;;;0.80;;
59922;SDS011;45778;51.142;3.732;2023-06-04T14:27:13;2.58;;;0.85;;
59922;SDS011;45778;51.142;3.732;2023-06-04T14:29:39;0.77;;;0.63;;
59922;SDS011;45778;51.142;3.732;2023-06-04T14:32:05;4.20;;;0.85;;
59922;SDS011;45778;51.142;3.732;2023-06-04T14:34:31;0.75;;;0.70;;
59922;SDS011;45778;51.142;3.732;2023-06-04T14:36:57;4.53;;;0.82;;
59922;SDS011;45778;51.142;3.732;2023-06-04T14:39:25;1.98;;;0.90;;
59922;SDS011;45778;51.142;3.732;2023-06-04T14:41:51;11.98;;;1.65;;
59922;SDS011;45778;51.142;3.732;2023-06-04T14:44:17;2.35;;;0.98;;
59922;SDS011;45778;51.142;3.732;2023-06-04T14:46:43;1.40;;;0.80;;
59922;SDS011;45778;51.142;3.732;2023-06-04T14:49:09;3.50;;;0.80;;
59922;SDS011;45778;51.142;3.732;2023-06-04T14:51:35;4.72;;;1.67;;
59922;SDS011;45778;51.142;3.732;2023-06-04T14:54:01;9.23;;;1.73;;